sensor_id;sensor_type;location;lat;lon;timestamp;pressure;altitude;pressure_sealevel;temperature;humidity
8699;BME280;4386;51.236;6.742;2023-05-25T00:00:40;96801.00;;;17.31;79.37
8699;BME280;4386;51.236;6.742;2023-05-25T00:02:02;96796.13;;;17.28;79.20
8699;BME280;4386;51.236;6.742;2023-05-25T00:03:10;96796.66;;;17.25;79.65
8699;BME280;4386;51.236;6.742;2023-05-25T00:04:13;96803.34;;;17.22;79.70
8699;BME280;4386;51.236;6.742;2023-05-25T00:05:18;96808.16;;;17.25;79.67
8699;BME280;4386;51.236;6.742;2023-05-25T00:06:21;96793.44;;;17.23;79.75
8699;BME280;4386;51.236;6.742;2023-05-25T00:07:24;96797.19;;;17.22;80.04
8699;BME280;4386;51.236;6.742;2023-05-25T00:08:28;96796.41;;;17.21;79.77
8699;BME280;4386;51.236;6.742;2023-05-25T00:09:30;96796.66;;;17.25;80.21
8699;BME280;4386;51.236;6.742;2023-05-25T00:10:34;96796.13;;;17.28;80.28
8699;BME280;4386;51.236;6.742;2023-05-25T00:11:37;96790.53;;;17.29;80.05
8699;BME280;4386;51.236;6.742;2023-05-25T00:12:41;96798.84;;;17.33;79.98
8699;BME280;4386;51.236;6.742;2023-05-25T00:13:43;96794.56;;;17.32;79.99
8699;BME280;4386;51.236;6.742;2023-05-25T00:14:46;96795.13;;;17.34;79.94
8699;BME280;4386;51.236;6.742;2023-05-25T00:15:49;96787.63;;;17.36;80.08
8699;BME280;4386;51.236;6.742;2023-05-25T00:16:52;96798.34;;;17.36;80.08
8699;BME280;4386;51.236;6.742;2023-05-25T00:17:55;96789.78;;;17.39;79.90
8699;BME280;4386;51.236;6.742;2023-05-25T00:18:58;96789.78;;;17.39;80.03
8699;BME280;4386;51.236;6.742;2023-05-25T00:20:05;96796.19;;;17.38;79.90
8699;BME280;4386;51.236;6.742;2023-05-25T00:21:09;96790.84;;;17.38;80.03
8699;BME280;4386;51.236;6.742;2023-05-25T00:22:12;96797.00;;;17.38;80.06
8699;BME280;4386;51.236;6.742;2023-05-25T00:23:16;96793.53;;;17.38;80.10
8699;BME280;4386;51.236;6.742;2023-05-25T00:24:18;96801.56;;;17.38;79.95
8699;BME280;4386;51.236;6.742;2023-05-25T00:25:22;96797.81;;;17.39;80.01
8699;BME280;4386;51.236;6.742;2023-05-25T00:26:24;96791.94;;;17.37;80.10
8699;BME280;4386;51.236;6.742;2023-05-25T00:27:29;96797.28;;;17.37;80.11
8699;BME280;4386;51.236;6.742;2023-05-25T00:28:32;96794.59;;;17.37;80.00
8699;BME280;4386;51.236;6.742;2023-05-25T00:29:35;96795.91;;;17.34;80.12
8699;BME280;4386;51.236;6.742;2023-05-25T00:30:38;96793.50;;;17.33;79.97
8699;BME280;4386;51.236;6.742;2023-05-25T00:31:42;96789.47;;;17.30;80.05
8699;BME280;4386;51.236;6.742;2023-05-25T00:32:44;96791.59;;;17.28;80.15
8699;BME280;4386;51.236;6.742;2023-05-25T00:33:49;96800.44;;;17.29;80.01
8699;BME280;4386;51.236;6.742;2023-05-25T00:34:52;96795.88;;;17.29;79.89
8699;BME280;4386;51.236;6.742;2023-05-25T00:35:57;96787.06;;;17.29;80.10
8699;BME280;4386;51.236;6.742;2023-05-25T00:37:01;96794.53;;;17.27;80.14
8699;BME280;4386;51.236;6.742;2023-05-25T00:38:05;96795.59;;;17.26;80.12
8699;BME280;4386;51.236;6.742;2023-05-25T00:39:07;96798.56;;;17.24;80.16
8699;BME280;4386;51.236;6.742;2023-05-25T00:40:13;96791.03;;;17.21;80.07
8699;BME280;4386;51.236;6.742;2023-05-25T00:41:17;96792.09;;;17.20;80.16
8699;BME280;4386;51.236;6.742;2023-05-25T00:42:21;96791.81;;;17.16;80.21
8699;BME280;4386;51.236;6.742;2023-05-25T00:43:26;96789.13;;;17.16;80.39
8699;BME280;4386;51.236;6.742;2023-05-25T00:44:29;96789.66;;;17.13;80.27
8699;BME280;4386;51.236;6.742;2023-05-25T00:45:33;96790.16;;;17.10;80.45
8699;BME280;4386;51.236;6.742;2023-05-25T00:46:37;96789.06;;;17.06;80.35
8699;BME280;4386;51.236;6.742;2023-05-25T00:47:40;96790.13;;;17.05;80.54
8699;BME280;4386;51.236;6.742;2023-05-25T00:48:43;96789.31;;;17.05;80.69
8699;BME280;4386;51.236;6.742;2023-05-25T00:49:46;96795.16;;;17.02;80.75
8699;BME280;4386;51.236;6.742;2023-05-25T00:50:53;96790.09;;;17.00;80.82
8699;BME280;4386;51.236;6.742;2023-05-25T00:51:57;96788.22;;;17.01;80.74
8699;BME280;4386;51.236;6.742;2023-05-25T00:53:00;96790.09;;;17.00;80.90
8699;BME280;4386;51.236;6.742;2023-05-25T00:54:02;96783.41;;;16.98;81.23
8699;BME280;4386;51.236;6.742;2023-05-25T00:55:08;96784.19;;;16.98;80.99
8699;BME280;4386;51.236;6.742;2023-05-25T00:56:14;96785.50;;;16.96;81.11
8699;BME280;4386;51.236;6.742;2023-05-25T00:57:22;96789.50;;;16.93;81.13
8699;BME280;4386;51.236;6.742;2023-05-25T00:58:30;96789.50;;;16.93;81.05
8699;BME280;4386;51.236;6.742;2023-05-25T00:59:37;96780.38;;;16.89;81.37
8699;BME280;4386;51.236;6.742;2023-05-25T01:00:43;96780.13;;;16.91;81.37
8699;BME280;4386;51.236;6.742;2023-05-25T01:01:48;96787.59;;;16.89;81.44
8699;BME280;4386;51.236;6.742;2023-05-25T01:02:55;96799.09;;;16.89;81.50
8699;BME280;4386;51.236;6.742;2023-05-25T01:04:02;96792.94;;;16.89;81.63
8699;BME280;4386;51.236;6.742;2023-05-25T01:05:09;96789.47;;;16.88;81.53
8699;BME280;4386;51.236;6.742;2023-05-25T01:06:14;96789.72;;;16.87;81.74
8699;BME280;4386;51.236;6.742;2023-05-25T01:07:20;96775.53;;;16.86;81.68
8699;BME280;4386;51.236;6.742;2023-05-25T01:08:26;96791.59;;;16.86;81.84
8699;BME280;4386;51.236;6.742;2023-05-25T01:09:29;96788.09;;;16.86;81.86
8699;BME280;4386;51.236;6.742;2023-05-25T01:10:36;96790.53;;;16.87;81.81
8699;BME280;4386;51.236;6.742;2023-05-25T01:11:41;96786.00;;;16.88;81.87
8699;BME280;4386;51.236;6.742;2023-05-25T01:12:48;96785.19;;;16.87;81.83
8699;BME280;4386;51.236;6.742;2023-05-25T01:13:54;96784.13;;;16.88;81.66
8699;BME280;4386;51.236;6.742;2023-05-25T01:15:01;96786.81;;;16.88;81.92
8699;BME280;4386;51.236;6.742;2023-05-25T01:16:05;96785.44;;;16.86;82.03
8699;BME280;4386;51.236;6.742;2023-05-25T01:17:09;96787.59;;;16.89;82.00
8699;BME280;4386;51.236;6.742;2023-05-25T01:18:13;96782.00;;;16.90;82.11
8699;BME280;4386;51.236;6.742;2023-05-25T01:19:17;96785.47;;;16.91;82.26
8699;BME280;4386;51.236;6.742;2023-05-25T01:20:19;96783.63;;;16.91;82.28
8699;BME280;4386;51.236;6.742;2023-05-25T01:21:29;96782.53;;;16.92;82.17
8699;BME280;4386;51.236;6.742;2023-05-25T01:22:42;96788.41;;;16.89;82.30
8699;BME280;4386;51.236;6.742;2023-05-25T01:23:54;96782.25;;;16.89;82.08
8699;BME280;4386;51.236;6.742;2023-05-25T01:25:00;96783.56;;;16.86;82.49
8699;BME280;4386;51.236;6.742;2023-05-25T01:26:09;96789.19;;;16.85;82.30
8699;BME280;4386;51.236;6.742;2023-05-25T01:27:16;96789.69;;;16.82;82.24
8699;BME280;4386;51.236;6.742;2023-05-25T01:28:27;96791.56;;;16.81;82.23
8699;BME280;4386;51.236;6.742;2023-05-25T01:29:32;96793.66;;;16.74;82.38
8699;BME280;4386;51.236;6.742;2023-05-25T01:30:36;96788.53;;;16.73;82.33
8699;BME280;4386;51.236;6.742;2023-05-25T01:31:42;96789.84;;;16.70;82.37
8699;BME280;4386;51.236;6.742;2023-05-25T01:32:48;96785.03;;;16.67;82.49
8699;BME280;4386;51.236;6.742;2023-05-25T01:33:51;96787.41;;;16.63;82.17
8699;BME280;4386;51.236;6.742;2023-05-25T01:34:56;96800.47;;;16.60;82.56
8699;BME280;4386;51.236;6.742;2023-05-25T01:36:00;96789.47;;;16.56;82.69
8699;BME280;4386;51.236;6.742;2023-05-25T01:37:05;96790.75;;;16.54;82.70
8699;BME280;4386;51.236;6.742;2023-05-25T01:38:08;96783.25;;;16.51;82.73
8699;BME280;4386;51.236;6.742;2023-05-25T01:39:12;96794.47;;;16.48;82.66
8699;BME280;4386;51.236;6.742;2023-05-25T01:40:14;96783.19;;;16.46;82.79
8699;BME280;4386;51.236;6.742;2023-05-25T01:41:18;96789.63;;;16.45;82.85
8699;BME280;4386;51.236;6.742;2023-05-25T01:42:21;96785.31;;;16.44;82.86
8699;BME280;4386;51.236;6.742;2023-05-25T01:43:24;96791.72;;;16.43;82.87
8699;BME280;4386;51.236;6.742;2023-05-25T01:44:27;96785.31;;;16.44;82.87
8699;BME280;4386;51.236;6.742;2023-05-25T01:45:31;96784.28;;;16.45;82.87
8699;BME280;4386;51.236;6.742;2023-05-25T01:46:36;96779.97;;;16.44;82.97
8699;BME280;4386;51.236;6.742;2023-05-25T01:47:46;96784.78;;;16.42;83.04
8699;BME280;4386;51.236;6.742;2023-05-25T01:49:03;96788.28;;;16.42;83.02
8699;BME280;4386;51.236;6.742;2023-05-25T01:50:15;96786.34;;;16.38;83.21
8699;BME280;4386;51.236;6.742;2023-05-25T01:51:25;96778.56;;;16.36;83.13
8699;BME280;4386;51.236;6.742;2023-05-25T01:52:35;96780.47;;;16.36;83.14
8699;BME280;4386;51.236;6.742;2023-05-25T01:53:45;96779.88;;;16.34;83.27
8699;BME280;4386;51.236;6.742;2023-05-25T01:54:53;96784.41;;;16.33;83.35
8699;BME280;4386;51.236;6.742;2023-05-25T01:56:00;96781.44;;;16.30;83.17
8699;BME280;4386;51.236;6.742;2023-05-25T01:57:06;96780.38;;;16.31;83.43
8699;BME280;4386;51.236;6.742;2023-05-25T01:58:13;96788.69;;;16.29;83.37
8699;BME280;4386;51.236;6.742;2023-05-25T01:59:20;96789.97;;;16.27;83.50
8699;BME280;4386;51.236;6.742;2023-05-25T02:00:23;96788.91;;;16.28;83.46
8699;BME280;4386;51.236;6.742;2023-05-25T02:01:30;96785.44;;;16.27;83.55
8699;BME280;4386;51.236;6.742;2023-05-25T02:02:35;96788.09;;;16.27;83.54
8699;BME280;4386;51.236;6.742;2023-05-25T02:03:40;96780.91;;;16.28;83.46
8699;BME280;4386;51.236;6.742;2023-05-25T02:04:43;96791.59;;;16.28;83.65
8699;BME280;4386;51.236;6.742;2023-05-25T02:05:46;96787.88;;;16.29;83.45
8699;BME280;4386;51.236;6.742;2023-05-25T02:06:50;96794.53;;;16.26;83.52
8699;BME280;4386;51.236;6.742;2023-05-25T02:07:55;96792.63;;;16.27;83.64
8699;BME280;4386;51.236;6.742;2023-05-25T02:08:57;96790.22;;;16.25;83.57
8699;BME280;4386;51.236;6.742;2023-05-25T02:10:01;96789.41;;;16.25;83.58
8699;BME280;4386;51.236;6.742;2023-05-25T02:11:03;96796.91;;;16.23;83.68
8699;BME280;4386;51.236;6.742;2023-05-25T02:12:07;96799.81;;;16.21;83.61
8699;BME280;4386;51.236;6.742;2023-05-25T02:13:10;96801.66;;;16.21;83.75
8699;BME280;4386;51.236;6.742;2023-05-25T02:14:13;96799.25;;;16.19;83.53
8699;BME280;4386;51.236;6.742;2023-05-25T02:15:17;96793.91;;;16.19;83.75
8699;BME280;4386;51.236;6.742;2023-05-25T02:16:20;96800.06;;;16.20;83.88
8699;BME280;4386;51.236;6.742;2023-05-25T02:17:23;96792.06;;;16.20;83.75
8699;BME280;4386;51.236;6.742;2023-05-25T02:18:29;96807.28;;;16.19;84.10
8699;BME280;4386;51.236;6.742;2023-05-25T02:19:31;96801.13;;;16.19;83.97
8699;BME280;4386;51.236;6.742;2023-05-25T02:20:35;96798.44;;;16.19;84.11
8699;BME280;4386;51.236;6.742;2023-05-25T02:21:38;96794.72;;;16.20;84.29
8699;BME280;4386;51.236;6.742;2023-05-25T02:22:41;96803.78;;;16.19;84.08
8699;BME280;4386;51.236;6.742;2023-05-25T02:23:45;96801.66;;;16.21;83.87
8699;BME280;4386;51.236;6.742;2023-05-25T02:24:50;96802.97;;;16.18;84.18
8699;BME280;4386;51.236;6.742;2023-05-25T02:25:52;96802.16;;;16.17;84.18
8699;BME280;4386;51.236;6.742;2023-05-25T02:26:57;96808.31;;;16.18;84.27
8699;BME280;4386;51.236;6.742;2023-05-25T02:27:59;96802.97;;;16.18;84.28
8699;BME280;4386;51.236;6.742;2023-05-25T02:29:04;96810.75;;;16.20;84.26
8699;BME280;4386;51.236;6.742;2023-05-25T02:30:07;96806.47;;;16.19;84.39
8699;BME280;4386;51.236;6.742;2023-05-25T02:31:11;96798.44;;;16.19;84.51
8699;BME280;4386;51.236;6.742;2023-05-25T02:32:13;96802.16;;;16.17;84.40
8699;BME280;4386;51.236;6.742;2023-05-25T02:33:26;96799.50;;;16.17;84.48
8699;BME280;4386;51.236;6.742;2023-05-25T02:34:28;96797.63;;;16.18;84.66
8699;BME280;4386;51.236;6.742;2023-05-25T02:35:31;96799.25;;;16.19;84.37
8699;BME280;4386;51.236;6.742;2023-05-25T02:36:34;96800.84;;;16.20;84.45
8699;BME280;4386;51.236;6.742;2023-05-25T02:37:38;96796.81;;;16.17;84.72
8699;BME280;4386;51.236;6.742;2023-05-25T02:38:40;96799.25;;;16.19;84.75
8699;BME280;4386;51.236;6.742;2023-05-25T02:39:45;96792.59;;;16.22;84.55
8699;BME280;4386;51.236;6.742;2023-05-25T02:40:48;96798.50;;;16.24;84.54
8699;BME280;4386;51.236;6.742;2023-05-25T02:41:51;96796.63;;;16.24;84.51
8699;BME280;4386;51.236;6.742;2023-05-25T02:42:53;96793.72;;;16.26;84.53
8699;BME280;4386;51.236;6.742;2023-05-25T02:43:57;96796.94;;;16.28;84.41
8699;BME280;4386;51.236;6.742;2023-05-25T02:45:01;96795.06;;;16.28;84.51
8699;BME280;4386;51.236;6.742;2023-05-25T02:46:04;96791.09;;;16.31;84.43
8699;BME280;4386;51.236;6.742;2023-05-25T02:47:07;96795.38;;;16.32;83.93
8699;BME280;4386;51.236;6.742;2023-05-25T02:48:10;96791.38;;;16.34;84.30
8699;BME280;4386;51.236;6.742;2023-05-25T02:49:13;96796.50;;;16.36;84.19
8699;BME280;4386;51.236;6.742;2023-05-25T02:50:16;96802.63;;;16.36;83.99
8699;BME280;4386;51.236;6.742;2023-05-25T02:51:19;96800.75;;;16.37;84.20
8699;BME280;4386;51.236;6.742;2023-05-25T02:52:22;96802.38;;;16.38;83.97
8699;BME280;4386;51.236;6.742;2023-05-25T02:53:26;96802.38;;;16.38;84.02
8699;BME280;4386;51.236;6.742;2023-05-25T02:54:30;96804.00;;;16.39;84.18
8699;BME280;4386;51.236;6.742;2023-05-25T02:55:34;96800.25;;;16.40;83.92
8699;BME280;4386;51.236;6.742;2023-05-25T02:56:38;96794.09;;;16.39;83.98
8699;BME280;4386;51.236;6.742;2023-05-25T02:57:43;96793.31;;;16.39;83.86
8699;BME280;4386;51.236;6.742;2023-05-25T02:58:46;96792.50;;;16.38;83.78
8699;BME280;4386;51.236;6.742;2023-05-25T02:59:49;96797.56;;;16.40;83.67
8699;BME280;4386;51.236;6.742;2023-05-25T03:00:58;96796.53;;;16.41;83.19
8699;BME280;4386;51.236;6.742;2023-05-25T03:02:07;96795.97;;;16.39;83.41
8699;BME280;4386;51.236;6.742;2023-05-25T03:03:12;96799.16;;;16.36;83.51
8699;BME280;4386;51.236;6.742;2023-05-25T03:04:22;96788.97;;;16.33;83.49
8699;BME280;4386;51.236;6.742;2023-05-25T03:05:32;96796.44;;;16.31;83.64
8699;BME280;4386;51.236;6.742;2023-05-25T03:06:41;96801.47;;;16.27;83.64
8699;BME280;4386;51.236;6.742;2023-05-25T03:07:53;96804.91;;;16.23;83.79
8699;BME280;4386;51.236;6.742;2023-05-25T03:09:02;96801.66;;;16.21;83.72
8699;BME280;4386;51.236;6.742;2023-05-25T03:10:12;96801.94;;;16.19;84.02
8699;BME280;4386;51.236;6.742;2023-05-25T03:11:25;96801.34;;;16.17;83.84
8699;BME280;4386;51.236;6.742;2023-05-25T03:12:33;96803.50;;;16.15;83.83
8699;BME280;4386;51.236;6.742;2023-05-25T03:13:43;96797.84;;;16.11;83.98
8699;BME280;4386;51.236;6.742;2023-05-25T03:14:52;96799.16;;;16.09;83.83
8699;BME280;4386;51.236;6.742;2023-05-25T03:16:00;96803.69;;;16.08;83.96
8699;BME280;4386;51.236;6.742;2023-05-25T03:17:11;96804.72;;;16.07;83.85
8699;BME280;4386;51.236;6.742;2023-05-25T03:18:14;96800.47;;;16.06;84.04
8699;BME280;4386;51.236;6.742;2023-05-25T03:19:17;96807.97;;;16.09;83.97
8699;BME280;4386;51.236;6.742;2023-05-25T03:20:21;96797.78;;;16.06;83.99
8699;BME280;4386;51.236;6.742;2023-05-25T03:21:25;96802.06;;;16.07;83.86
8699;BME280;4386;51.236;6.742;2023-05-25T03:22:29;96806.34;;;16.08;83.94
8699;BME280;4386;51.236;6.742;2023-05-25T03:23:32;96808.22;;;16.08;83.84
8699;BME280;4386;51.236;6.742;2023-05-25T03:24:35;96808.22;;;16.08;84.04
8699;BME280;4386;51.236;6.742;2023-05-25T03:25:42;96816.50;;;16.06;83.94
8699;BME280;4386;51.236;6.742;2023-05-25T03:26:48;96811.38;;;16.05;83.74
8699;BME280;4386;51.236;6.742;2023-05-25T03:27:51;96814.88;;;16.05;83.70
8699;BME280;4386;51.236;6.742;2023-05-25T03:28:55;96812.94;;;16.01;83.85
8699;BME280;4386;51.236;6.742;2023-05-25T03:29:58;96815.31;;;15.97;84.30
8699;BME280;4386;51.236;6.742;2023-05-25T03:31:01;96816.38;;;15.96;84.14
8699;BME280;4386;51.236;6.742;2023-05-25T03:32:04;96818.47;;;15.94;84.39
8699;BME280;4386;51.236;6.742;2023-05-25T03:33:08;96812.00;;;15.90;84.14
8699;BME280;4386;51.236;6.742;2023-05-25T03:34:11;96809.34;;;15.90;84.28
8699;BME280;4386;51.236;6.742;2023-05-25T03:35:14;96807.75;;;15.89;84.28
8699;BME280;4386;51.236;6.742;2023-05-25T03:36:17;96815.75;;;15.89;84.18
8699;BME280;4386;51.236;6.742;2023-05-25T03:37:20;96816.81;;;15.88;84.41
8699;BME280;4386;51.236;6.742;2023-05-25T03:38:23;96812.50;;;15.87;84.31
8699;BME280;4386;51.236;6.742;2023-05-25T03:39:26;96818.94;;;15.86;84.29
8699;BME280;4386;51.236;6.742;2023-05-25T03:40:29;96810.91;;;15.86;84.35
8699;BME280;4386;51.236;6.742;2023-05-25T03:41:32;96819.97;;;15.85;84.15
8699;BME280;4386;51.236;6.742;2023-05-25T03:42:36;96814.63;;;15.85;84.35
8699;BME280;4386;51.236;6.742;2023-05-25T03:43:40;96819.16;;;15.85;84.42
8699;BME280;4386;51.236;6.742;2023-05-25T03:44:42;96826.94;;;15.86;84.82
8699;BME280;4386;51.236;6.742;2023-05-25T03:45:46;96817.84;;;15.87;84.72
8699;BME280;4386;51.236;6.742;2023-05-25T03:46:48;96817.84;;;15.87;84.61
8699;BME280;4386;51.236;6.742;2023-05-25T03:47:52;96821.59;;;15.86;84.51
8699;BME280;4386;51.236;6.742;2023-05-25T03:48:54;96821.09;;;15.89;84.75
8699;BME280;4386;51.236;6.742;2023-05-25T03:49:58;96816.56;;;15.90;84.36
8699;BME280;4386;51.236;6.742;2023-05-25T03:51:00;96817.94;;;15.92;84.62
8699;BME280;4386;51.236;6.742;2023-05-25T03:52:04;96822.47;;;15.92;84.55
8699;BME280;4386;51.236;6.742;2023-05-25T03:53:07;96822.22;;;15.93;84.51
8699;BME280;4386;51.236;6.742;2023-05-25T03:54:11;96823.00;;;15.94;84.59
8699;BME280;4386;51.236;6.742;2023-05-25T03:55:13;96828.66;;;15.97;84.56
8699;BME280;4386;51.236;6.742;2023-05-25T03:56:17;96825.97;;;15.97;84.71
8699;BME280;4386;51.236;6.742;2023-05-25T03:57:19;96821.44;;;15.98;84.67
8699;BME280;4386;51.236;6.742;2023-05-25T03:58:24;96828.41;;;15.99;84.62
8699;BME280;4386;51.236;6.742;2023-05-25T03:59:26;96822.25;;;15.98;84.66
8699;BME280;4386;51.236;6.742;2023-05-25T04:00:30;96830.81;;;16.00;84.96
8699;BME280;4386;51.236;6.742;2023-05-25T04:01:32;96833.50;;;16.00;84.85
8699;BME280;4386;51.236;6.742;2023-05-25T04:02:40;96825.47;;;16.00;84.85
8699;BME280;4386;51.236;6.742;2023-05-25T04:03:43;96829.28;;;16.04;84.96
8699;BME280;4386;51.236;6.742;2023-05-25T04:04:46;96832.53;;;16.06;84.90
8699;BME280;4386;51.236;6.742;2023-05-25T04:05:52;96831.22;;;16.09;84.65
8699;BME280;4386;51.236;6.742;2023-05-25T04:06:56;96829.91;;;16.11;84.89
8699;BME280;4386;51.236;6.742;2023-05-25T04:07:59;96832.06;;;16.14;84.99
8699;BME280;4386;51.236;6.742;2023-05-25T04:09:03;96839.56;;;16.17;84.87
8699;BME280;4386;51.236;6.742;2023-05-25T04:10:06;96838.03;;;16.22;84.95
8699;BME280;4386;51.236;6.742;2023-05-25T04:11:10;96838.06;;;16.27;84.89
8699;BME280;4386;51.236;6.742;2023-05-25T04:12:12;96842.13;;;16.29;84.88
8699;BME280;4386;51.236;6.742;2023-05-25T04:13:16;96846.69;;;16.34;84.83
8699;BME280;4386;51.236;6.742;2023-05-25T04:14:20;96848.84;;;16.37;84.86
8699;BME280;4386;51.236;6.742;2023-05-25T04:15:23;96848.13;;;16.41;84.77
8699;BME280;4386;51.236;6.742;2023-05-25T04:16:26;96851.31;;;16.43;84.63
8699;BME280;4386;51.236;6.742;2023-05-25T04:17:29;96854.31;;;16.47;84.81
8699;BME280;4386;51.236;6.742;2023-05-25T04:18:32;96855.66;;;16.49;84.78
8699;BME280;4386;51.236;6.742;2023-05-25T04:19:35;96851.94;;;16.50;84.79
8699;BME280;4386;51.236;6.742;2023-05-25T04:20:37;96854.72;;;16.55;84.49
8699;BME280;4386;51.236;6.742;2023-05-25T04:21:41;96862.47;;;16.57;84.97
8699;BME280;4386;51.236;6.742;2023-05-25T04:22:44;96861.72;;;16.61;84.75
8699;BME280;4386;51.236;6.742;2023-05-25T04:23:47;96867.59;;;16.63;84.95
8699;BME280;4386;51.236;6.742;2023-05-25T04:24:49;96863.63;;;16.66;84.99
8699;BME280;4386;51.236;6.742;2023-05-25T04:25:53;96862.88;;;16.71;84.98
8699;BME280;4386;51.236;6.742;2023-05-25T04:26:55;96854.09;;;16.75;84.87
8699;BME280;4386;51.236;6.742;2023-05-25T04:27:59;96861.09;;;16.81;84.96
8699;BME280;4386;51.236;6.742;2023-05-25T04:29:02;96860.81;;;16.83;84.77
8699;BME280;4386;51.236;6.742;2023-05-25T04:30:08;96856.34;;;16.88;84.60
8699;BME280;4386;51.236;6.742;2023-05-25T04:31:12;96852.06;;;16.92;84.86
8699;BME280;4386;51.236;6.742;2023-05-25T04:32:15;96863.06;;;16.96;84.57
8699;BME280;4386;51.236;6.742;2023-05-25T04:33:19;96869.53;;;17.00;84.48
8699;BME280;4386;51.236;6.742;2023-05-25T04:34:23;96862.88;;;17.02;84.36
8699;BME280;4386;51.236;6.742;2023-05-25T04:35:25;96866.34;;;17.03;84.48
8699;BME280;4386;51.236;6.742;2023-05-25T04:36:29;96860.75;;;17.04;84.48
8699;BME280;4386;51.236;6.742;2023-05-25T04:37:33;96863.72;;;17.08;84.47
8699;BME280;4386;51.236;6.742;2023-05-25T04:38:37;96865.63;;;17.12;84.40
8699;BME280;4386;51.236;6.742;2023-05-25T04:39:40;96871.53;;;17.14;84.17
8699;BME280;4386;51.236;6.742;2023-05-25T04:40:43;96867.25;;;17.18;84.25
8699;BME280;4386;51.236;6.742;2023-05-25T04:41:48;96865.16;;;17.21;84.14
8699;BME280;4386;51.236;6.742;2023-05-25T04:42:53;96869.47;;;17.27;83.97
8699;BME280;4386;51.236;6.742;2023-05-25T04:43:57;96875.13;;;17.30;84.07
8699;BME280;4386;51.236;6.742;2023-05-25T04:45:05;96876.50;;;17.38;83.74
8699;BME280;4386;51.236;6.742;2023-05-25T04:46:11;96880.03;;;17.43;83.75
8699;BME280;4386;51.236;6.742;2023-05-25T04:47:14;96876.56;;;17.48;83.78
8699;BME280;4386;51.236;6.742;2023-05-25T04:48:18;96875.53;;;17.54;83.47
8699;BME280;4386;51.236;6.742;2023-05-25T04:49:22;96871.59;;;17.61;83.60
8699;BME280;4386;51.236;6.742;2023-05-25T04:50:25;96872.19;;;17.68;83.04
8699;BME280;4386;51.236;6.742;2023-05-25T04:51:29;96874.09;;;17.73;82.76
8699;BME280;4386;51.236;6.742;2023-05-25T04:52:33;96882.16;;;17.78;82.46
8699;BME280;4386;51.236;6.742;2023-05-25T04:53:35;96871.72;;;17.82;82.73
8699;BME280;4386;51.236;6.742;2023-05-25T04:54:38;96877.91;;;17.87;82.35
8699;BME280;4386;51.236;6.742;2023-05-25T04:55:43;96874.69;;;17.90;82.49
8699;BME280;4386;51.236;6.742;2023-05-25T04:56:46;96874.44;;;17.97;81.99
8699;BME280;4386;51.236;6.742;2023-05-25T04:57:49;96871.00;;;18.01;81.80
8699;BME280;4386;51.236;6.742;2023-05-25T04:58:54;96875.31;;;18.07;81.96
8699;BME280;4386;51.236;6.742;2023-05-25T04:59:56;96874.25;;;18.13;81.63
8699;BME280;4386;51.236;6.742;2023-05-25T05:01:00;96878.56;;;18.19;81.33
8699;BME280;4386;51.236;6.742;2023-05-25T05:02:05;96886.94;;;18.28;81.05
8699;BME280;4386;51.236;6.742;2023-05-25T05:03:09;96884.81;;;18.35;81.15
8699;BME280;4386;51.236;6.742;2023-05-25T05:04:12;96879.72;;;18.44;80.55
8699;BME280;4386;51.236;6.742;2023-05-25T05:05:17;96892.66;;;18.57;80.09
8699;BME280;4386;51.236;6.742;2023-05-25T05:06:21;96887.03;;;18.68;79.93
8699;BME280;4386;51.236;6.742;2023-05-25T05:07:23;96881.97;;;18.82;79.79
8699;BME280;4386;51.236;6.742;2023-05-25T05:08:27;96889.50;;;18.95;79.22
8699;BME280;4386;51.236;6.742;2023-05-25T05:09:29;96884.94;;;19.11;79.31
8699;BME280;4386;51.236;6.742;2023-05-25T05:10:33;96889.50;;;19.31;79.01
8699;BME280;4386;51.236;6.742;2023-05-25T05:11:35;96884.16;;;19.51;78.56
8699;BME280;4386;51.236;6.742;2023-05-25T05:12:39;96886.81;;;19.76;78.01
8699;BME280;4386;51.236;6.742;2023-05-25T05:13:41;96895.31;;;20.08;77.84
8699;BME280;4386;51.236;6.742;2023-05-25T05:14:45;96888.72;;;20.45;77.25
8699;BME280;4386;51.236;6.742;2023-05-25T05:15:48;96896.03;;;20.83;76.14
8699;BME280;4386;51.236;6.742;2023-05-25T05:16:51;96896.28;;;21.25;75.53
8699;BME280;4386;51.236;6.742;2023-05-25T05:17:55;96890.53;;;21.66;74.22
8699;BME280;4386;51.236;6.742;2023-05-25T05:18:59;96890.34;;;22.10;73.17
8699;BME280;4386;51.236;6.742;2023-05-25T05:20:02;96892.78;;;22.54;72.11
8699;BME280;4386;51.236;6.742;2023-05-25T05:21:09;96894.91;;;22.94;70.60
8699;BME280;4386;51.236;6.742;2023-05-25T05:22:12;96897.28;;;23.33;69.90
8699;BME280;4386;51.236;6.742;2023-05-25T05:23:16;96895.31;;;23.71;68.89
8699;BME280;4386;51.236;6.742;2023-05-25T05:24:19;96890.84;;;24.07;67.79
8699;BME280;4386;51.236;6.742;2023-05-25T05:25:23;96892.56;;;24.44;67.19
8699;BME280;4386;51.236;6.742;2023-05-25T05:26:25;96898.31;;;24.78;66.42
8699;BME280;4386;51.236;6.742;2023-05-25T05:27:29;96900.25;;;25.14;65.29
8699;BME280;4386;51.236;6.742;2023-05-25T05:28:32;96903.31;;;25.43;64.37
8699;BME280;4386;51.236;6.742;2023-05-25T05:29:37;96900.19;;;25.72;63.78
8699;BME280;4386;51.236;6.742;2023-05-25T05:30:39;96901.59;;;26.00;62.84
8699;BME280;4386;51.236;6.742;2023-05-25T05:31:43;96905.25;;;26.26;61.97
8699;BME280;4386;51.236;6.742;2023-05-25T05:32:45;96906.78;;;26.50;60.77
8699;BME280;4386;51.236;6.742;2023-05-25T05:33:50;96909.84;;;26.74;60.16
8699;BME280;4386;51.236;6.742;2023-05-25T05:34:52;96905.44;;;26.95;59.94
8699;BME280;4386;51.236;6.742;2023-05-25T05:35:56;96898.56;;;27.15;59.75
8699;BME280;4386;51.236;6.742;2023-05-25T05:36:59;96910.22;;;27.32;58.52
8699;BME280;4386;51.236;6.742;2023-05-25T05:38:02;96908.00;;;27.52;58.47
8699;BME280;4386;51.236;6.742;2023-05-25T05:39:06;96911.97;;;27.71;57.73
8699;BME280;4386;51.236;6.742;2023-05-25T05:40:08;96904.88;;;27.87;57.28
8699;BME280;4386;51.236;6.742;2023-05-25T05:41:14;96911.88;;;28.06;57.07
8699;BME280;4386;51.236;6.742;2023-05-25T05:42:16;96914.06;;;28.21;56.51
8699;BME280;4386;51.236;6.742;2023-05-25T05:43:20;96915.59;;;28.39;55.82
8699;BME280;4386;51.236;6.742;2023-05-25T05:44:23;96902.19;;;28.55;55.41
8699;BME280;4386;51.236;6.742;2023-05-25T05:45:30;96909.19;;;28.73;55.18
8699;BME280;4386;51.236;6.742;2023-05-25T05:46:32;96910.53;;;28.87;54.16
8699;BME280;4386;51.236;6.742;2023-05-25T05:47:37;96904.16;;;29.04;53.65
8699;BME280;4386;51.236;6.742;2023-05-25T05:48:44;96907.41;;;29.18;53.90
8699;BME280;4386;51.236;6.742;2023-05-25T05:49:49;96904.88;;;29.34;52.98
8699;BME280;4386;51.236;6.742;2023-05-25T05:50:52;96918.72;;;29.50;52.41